Time;durP1;ratioP1;P1;durP2;ratioP2;P2;SDS_P1;SDS_P2;PMS_P1;PMS_P2;Temp;Humidity;BMP_temperature;BMP_pressure;BME280_temperature;BME280_humidity;BME280_pressure;Samples;Min_cycle;Max_cycle;Signal;HPM_P1;HPM_P2
2021/04/18 00:00:16;;;;;;;132.90;80.50;;;;;;;4.66;75.23;99233.21;114504;1206;103059;-72
2021/04/18 00:03:03;;;;;;;144.90;89.50;;;;;;;4.66;75.48;99237.61;114981;1205;103053;-71
2021/04/18 00:05:30;;;;;;;135.00;85.10;;;;;;;4.67;75.56;99239.32;114511;1206;103172;-72
2021/04/18 00:08:03;;;;;;;137.40;86.50;;;;;;;4.66;75.54;99227.94;114517;1206;103078;-73
2021/04/18 00:10:35;;;;;;;143.00;85.40;;;;;;;4.66;75.28;99240.25;114495;1205;103163;-72
2021/04/18 00:13:11;;;;;;;112.50;66.80;;;;;;;4.65;75.70;99235.91;114485;1206;103091;-73
2021/04/18 00:15:42;;;;;;;90.70;54.90;;;;;;;4.64;75.78;99235.06;114481;1206;103127;-72
2021/04/18 00:18:15;;;;;;;95.80;56.50;;;;;;;4.65;75.56;99243.80;114538;1206;103128;-72
2021/04/18 00:20:42;;;;;;;96.47;58.13;;;;;;;4.65;75.60;99236.77;114562;1205;103341;-73
2021/04/18 00:23:13;;;;;;;84.80;53.70;;;;;;;4.66;75.60;99237.61;114480;1206;103049;-71
2021/04/18 00:25:40;;;;;;;84.57;51.93;;;;;;;4.67;75.58;99240.20;114516;1206;103198;-72
2021/04/18 00:28:07;;;;;;;85.65;54.00;;;;;;;4.68;75.33;99247.17;114463;1206;103177;-72
2021/04/18 00:30:38;;;;;;;87.10;55.45;;;;;;;4.69;75.84;99245.38;114559;1206;103051;-72
2021/04/18 00:33:06;;;;;;;100.40;62.45;;;;;;;4.70;75.54;99255.83;114546;1206;103162;-73
2021/04/18 00:35:33;;;;;;;104.53;63.88;;;;;;;4.71;76.00;99254.07;114475;1206;103150;-71
2021/04/18 00:38:00;;;;;;;115.30;71.50;;;;;;;4.72;75.32;99247.88;114503;1206;103165;-71
2021/04/18 00:40:29;;;;;;;121.38;74.88;;;;;;;4.72;75.51;99246.08;114383;1205;103053;-72
2021/04/18 00:42:56;;;;;;;125.10;75.30;;;;;;;4.73;75.70;99242.52;114475;1206;103063;-71
2021/04/18 00:45:23;;;;;;;119.50;77.50;;;;;;;4.75;75.45;99240.67;114512;1206;103206;-71
2021/04/18 00:47:55;;;;;;;125.35;79.00;;;;;;;4.72;75.35;99232.91;114491;1206;103158;-73
2021/04/18 00:50:32;;;;;;;115.20;74.00;;;;;;;4.59;75.63;99232.61;114536;1206;103053;-73
2021/04/18 00:53:06;;;;;;;120.60;74.77;;;;;;;4.52;75.63;99235.61;114598;1206;103133;-73
2021/04/18 00:55:44;;;;;;;122.13;76.50;;;;;;;4.47;75.74;99231.40;115851;1206;100926;-71
2021/04/18 00:58:11;;;;;;;117.40;75.00;;;;;;;4.46;75.48;99229.69;115850;1205;101576;-72
2021/04/18 01:00:40;;;;;;;127.33;78.93;;;;;;;4.49;75.93;99235.74;115801;1206;100898;-72
2021/04/18 01:03:07;;;;;;;116.70;73.80;;;;;;;4.53;75.63;99237.32;115211;1206;103178;-72
2021/04/18 01:05:34;;;;;;;116.90;74.70;;;;;;;4.57;75.51;99238.89;114509;1206;103081;-72
2021/04/18 01:08:02;;;;;;;123.85;78.95;;;;;;;4.60;75.55;99231.69;115810;1206;100846;-72
2021/04/18 01:10:29;;;;;;;129.30;81.00;;;;;;;4.65;76.00;99238.53;114797;1206;103194;-74
2021/04/18 01:12:55;;;;;;;127.05;76.30;;;;;;;4.69;76.06;99246.22;114547;1206;103146;-74
2021/04/18 01:15:22;;;;;;;114.70;71.10;;;;;;;4.70;75.78;99250.56;114476;1206;103161;-74
2021/04/18 01:17:49;;;;;;;97.55;59.70;;;;;;;4.64;75.81;99242.09;114530;1206;103165;-73
2021/04/18 01:20:26;;;;;;;100.35;59.95;;;;;;;4.49;75.20;99244.48;114559;1206;103108;-74
2021/04/18 01:22:54;;;;;;;104.20;62.00;;;;;;;4.38;75.84;99234.44;114481;1206;103242;-73
2021/04/18 01:25:26;;;;;;;121.55;75.95;;;;;;;4.41;76.02;99246.63;114453;1205;103056;-73
2021/04/18 01:27:53;;;;;;;124.20;73.70;;;;;;;4.47;75.70;99246.36;114535;1206;103583;-72
2021/04/18 01:30:27;;;;;;;109.45;69.60;;;;;;;4.49;75.71;99243.64;114435;1206;103168;-72
2021/04/18 01:33:03;;;;;;;115.70;72.00;;;;;;;4.52;76.13;99246.14;114497;1206;103056;-72
2021/04/18 01:35:31;;;;;;;125.07;76.50;;;;;;;4.55;76.10;99240.73;115024;1206;103081;-72
2021/04/18 01:37:58;;;;;;;122.90;77.50;;;;;;;4.58;76.26;99243.23;114754;1206;103136;-72
2021/04/18 01:40:30;;;;;;;126.60;80.10;;;;;;;4.60;76.10;99247.50;114522;1206;103532;-73
2021/04/18 01:42:57;;;;;;;136.60;86.20;;;;;;;4.62;76.36;99242.18;114504;1206;103172;-71
2021/04/18 01:45:26;;;;;;;142.10;88.90;;;;;;;4.63;76.21;99238.62;114530;1206;103079;-74
2021/04/18 01:47:57;;;;;;;131.85;83.45;;;;;;;4.64;76.26;99237.70;114546;1206;103203;-72
2021/04/18 01:50:31;;;;;;;132.15;85.90;;;;;;;4.64;76.12;99242.97;114485;1206;103292;-74
2021/04/18 01:53:00;;;;;;;132.20;82.95;;;;;;;4.64;75.70;99237.70;114496;1206;103079;-74
2021/04/18 01:55:27;;;;;;;140.75;85.20;;;;;;;4.65;76.17;99244.67;114486;1206;103150;-70
2021/04/18 01:58:03;;;;;;;132.60;84.33;;;;;;;4.65;76.10;99243.80;114574;1206;103104;-73
2021/04/18 02:00:35;;;;;;;130.75;82.35;;;;;;;4.64;75.65;99237.70;114533;1205;103047;-71
2021/04/18 02:03:07;;;;;;;120.30;76.70;;;;;;;4.65;75.70;99241.17;114502;1206;103682;-72
2021/04/18 02:05:35;;;;;;;133.45;84.50;;;;;;;4.64;75.92;99234.19;114517;1206;103294;-73
2021/04/18 02:08:04;;;;;;;128.70;80.70;;;;;;;4.64;76.35;99232.42;114700;1206;103059;-72
2021/04/18 02:10:31;;;;;;;128.90;79.60;;;;;;;4.64;75.72;99231.55;114517;1206;103052;-71
2021/04/18 02:12:58;;;;;;;122.25;78.05;;;;;;;4.64;76.34;99227.16;114520;1206;103517;-71
2021/04/18 02:15:25;;;;;;;126.40;81.30;;;;;;;4.62;75.88;99229.84;114504;1206;103207;-70
2021/04/18 02:17:56;;;;;;;129.00;80.75;;;;;;;4.62;75.87;99224.58;115213;1206;103229;-70
2021/04/18 02:20:23;;;;;;;128.15;80.25;;;;;;;4.62;76.26;99226.38;114478;1206;103542;-71
2021/04/18 02:22:54;;;;;;;125.30;81.30;;;;;;;4.62;76.36;99219.30;114500;1206;103149;-70
2021/04/18 02:25:21;;;;;;;128.00;81.90;;;;;;;4.64;76.17;99223.65;114511;1206;104656;-71
2021/04/18 02:27:48;;;;;;;127.25;82.00;;;;;;;4.65;76.35;99228.00;114524;1206;103101;-70
2021/04/18 02:30:15;;;;;;;122.10;77.65;;;;;;;4.64;76.54;99221.89;114482;1206;103277;-72
2021/04/18 02:32:43;;;;;;;129.00;81.00;;;;;;;4.64;76.33;99218.38;114512;1206;103152;-72
2021/04/18 02:35:16;;;;;;;127.77;79.00;;;;;;;4.64;76.05;99213.11;114532;1205;103095;-72
2021/04/18 02:37:47;;;;;;;130.50;78.80;;;;;;;4.64;76.40;99213.98;114517;1205;103268;-75
2021/04/18 02:40:23;;;;;;;123.75;75.45;;;;;;;4.63;76.21;99201.73;114493;1206;103197;-72
2021/04/18 02:42:50;;;;;;;124.00;73.20;;;;;;;4.64;76.12;99213.98;114524;1206;103169;-71
2021/04/18 02:45:17;;;;;;;111.90;71.40;;;;;;;4.63;76.11;99199.09;114544;1206;103086;-72
2021/04/18 02:47:45;;;;;;;112.50;67.80;;;;;;;4.62;76.45;99202.66;114444;1206;103592;-73
2021/04/18 02:50:12;;;;;;;101.70;63.77;;;;;;;4.62;76.40;99197.39;115407;1205;103246;-71
2021/04/18 02:52:39;;;;;;;104.05;62.30;;;;;;;4.62;76.09;99192.95;114466;1206;102171;-70
2021/04/18 02:55:09;;;;;;;93.20;60.30;;;;;;;4.63;76.50;99193.83;114493;1206;103053;-72
2021/04/18 02:57:36;;;;;;;100.83;61.73;;;;;;;4.66;76.40;99198.09;114492;1206;103487;-73
2021/04/18 03:00:06;;;;;;;93.83;59.67;;;;;;;4.67;76.48;99191.89;114511;1206;103280;-71
2021/04/18 03:02:34;;;;;;;98.50;58.53;;;;;;;4.67;76.04;99200.67;114460;1206;103277;-71
2021/04/18 03:05:06;;;;;;;96.45;59.75;;;;;;;4.68;76.22;99191.84;114484;1206;103166;-70
2021/04/18 03:07:34;;;;;;;96.30;60.90;;;;;;;4.70;76.06;99186.48;114920;1206;103475;-69
2021/04/18 03:10:01;;;;;;;100.10;61.90;;;;;;;4.70;76.27;99189.95;114490;1206;103158;-71
2021/04/18 03:12:28;;;;;;;91.90;58.40;;;;;;;4.70;76.28;99191.75;114523;1206;103108;-71
2021/04/18 03:14:55;;;;;;;94.80;56.35;;;;;;;4.71;76.25;99193.47;114476;1206;103155;-70
2021/04/18 03:17:24;;;;;;;90.60;57.20;;;;;;;4.71;76.71;99188.19;114458;1206;103095;-72
2021/04/18 03:19:52;;;;;;;89.00;54.30;;;;;;;4.71;76.41;99182.92;114451;1206;103094;-71
2021/04/18 03:22:19;;;;;;;89.70;56.40;;;;;;;4.71;76.17;99181.13;114522;1206;103169;-72
2021/04/18 03:24:46;;;;;;;93.50;57.80;;;;;;;4.71;76.17;99177.66;114514;1206;103050;-72
2021/04/18 03:27:13;;;;;;;91.50;55.10;;;;;;;4.72;76.31;99180.20;115094;1206;103166;-71
2021/04/18 03:29:45;;;;;;;90.00;57.30;;;;;;;4.72;76.67;99184.63;114458;1206;103188;-72
2021/04/18 03:32:12;;;;;;;88.70;56.10;;;;;;;4.71;75.99;99182.92;114488;1206;103515;-72
2021/04/18 03:34:43;;;;;;;97.20;59.50;;;;;;;4.72;76.63;99190.74;114445;1206;103154;-70
2021/04/18 03:37:10;;;;;;;97.50;59.95;;;;;;;4.75;76.72;99192.39;114474;1206;103059;-73
2021/04/18 03:39:37;;;;;;;94.80;55.80;;;;;;;4.71;76.26;99196.94;114555;1206;103207;-72
2021/04/18 03:42:04;;;;;;;84.70;51.67;;;;;;;4.56;75.98;99185.33;114496;1206;103161;-72
2021/04/18 03:44:31;;;;;;;92.35;55.05;;;;;;;4.51;76.09;99192.59;114556;1206;103196;-71
2021/04/18 03:46:58;;;;;;;87.30;53.10;;;;;;;4.53;76.12;99187.27;114579;1206;103091;-70
2021/04/18 03:49:25;;;;;;;91.20;55.00;;;;;;;4.56;76.21;99195.03;114515;1206;103315;-73
2021/04/18 03:51:53;;;;;;;88.67;55.00;;;;;;;4.59;76.86;99192.26;114478;1206;103099;-71
2021/04/18 03:54:24;;;;;;;86.30;53.20;;;;;;;4.62;76.25;99195.59;114512;1206;103150;-72
2021/04/18 03:56:55;;;;;;;85.27;54.23;;;;;;;4.65;76.46;99194.61;114442;1206;103142;-72
2021/04/18 03:59:22;;;;;;;94.10;56.60;;;;;;;4.67;76.35;99189.26;114523;1206;103130;-71
2021/04/18 04:01:49;;;;;;;92.40;53.60;;;;;;;4.70;76.55;99192.59;114483;1206;103264;-71
2021/04/18 04:04:17;;;;;;;93.13;58.67;;;;;;;4.73;76.56;99191.61;114486;1206;103053;-71
2021/04/18 04:06:52;;;;;;;98.30;58.10;;;;;;;4.74;76.67;99188.89;114568;1206;103056;-74
2021/04/18 04:09:19;;;;;;;97.00;62.35;;;;;;;4.77;76.89;99190.55;114500;1206;103514;-73
2021/04/18 04:11:56;;;;;;;97.05;61.60;;;;;;;4.79;76.83;99193.09;114493;1206;103155;-74
2021/04/18 04:14:22;;;;;;;107.10;65.00;;;;;;;4.80;76.98;99189.53;114527;1206;103139;-73
2021/04/18 04:16:49;;;;;;;105.07;64.97;;;;;;;4.82;76.95;99201.73;114513;1206;103111;-72
2021/04/18 04:19:21;;;;;;;98.20;60.50;;;;;;;4.82;76.63;99203.50;114557;1206;103088;-75
2021/04/18 04:21:48;;;;;;;98.20;61.70;;;;;;;4.83;76.92;99198.17;114525;1206;103126;-74
2021/04/18 04:24:15;;;;;;;95.60;61.25;;;;;;;4.84;76.52;99191.97;114540;1206;103102;-72
2021/04/18 04:26:42;;;;;;;99.10;61.00;;;;;;;4.86;76.41;99200.66;114529;1206;103200;-72
2021/04/18 04:29:09;;;;;;;94.50;59.40;;;;;;;4.89;77.16;99197.85;114296;1206;103169;-74
2021/04/18 04:31:36;;;;;;;90.45;56.40;;;;;;;4.91;76.97;99193.36;114471;1206;103083;-76
2021/04/18 04:34:07;;;;;;;88.10;53.30;;;;;;;4.94;76.95;99199.42;114461;1206;103191;-72
2021/04/18 04:36:34;;;;;;;73.90;46.00;;;;;;;4.92;76.77;99210.05;114486;1206;103059;-71
2021/04/18 04:39:06;;;;;;;78.70;48.47;;;;;;;4.90;76.56;99206.63;114479;1206;103120;-73
2021/04/18 04:41:33;;;;;;;84.30;53.20;;;;;;;4.92;76.52;99205.62;114453;1205;103152;-72
2021/04/18 04:44:00;;;;;;;86.60;54.40;;;;;;;4.94;76.82;99210.84;114474;1206;103054;-71
2021/04/18 04:46:27;;;;;;;87.55;53.45;;;;;;;4.96;76.86;99208.98;114457;1206;103124;-72
2021/04/18 04:48:54;;;;;;;84.85;53.40;;;;;;;5.00;76.77;99210.55;114468;1206;103172;-72
2021/04/18 04:51:21;;;;;;;92.10;55.85;;;;;;;5.02;76.78;99210.46;114486;1206;103063;-71
2021/04/18 04:53:48;;;;;;;86.45;54.70;;;;;;;5.03;76.54;99213.05;114445;1206;103181;-69
2021/04/18 04:56:15;;;;;;;98.90;62.00;;;;;;;5.07;76.77;99216.38;114451;1206;103136;-70
2021/04/18 04:58:42;;;;;;;104.83;67.53;;;;;;;5.09;76.97;99211.88;114473;1206;103076;-70
2021/04/18 05:01:09;;;;;;;102.55;66.25;;;;;;;5.11;76.94;99212.67;114455;1206;103079;-71
2021/04/18 05:03:38;;;;;;;98.13;64.87;;;;;;;5.13;76.76;99210.81;114477;1205;103663;-73
2021/04/18 05:06:11;;;;;;;100.70;65.25;;;;;;;5.15;77.12;99210.72;114466;1206;103053;-73
2021/04/18 05:08:40;;;;;;;107.40;67.85;;;;;;;5.17;77.15;99208.87;114462;1206;103059;-73
2021/04/18 05:11:07;;;;;;;112.25;69.55;;;;;;;5.14;76.58;99204.61;114451;1206;103056;-73
2021/04/18 05:13:34;;;;;;;105.30;66.30;;;;;;;5.13;76.75;99194.12;114430;1205;103280;-70
2021/04/18 05:16:02;;;;;;;97.00;58.90;;;;;;;5.17;76.85;99188.64;114437;1206;103114;-70
2021/04/18 05:18:29;;;;;;;90.00;57.55;;;;;;;5.20;76.70;99188.50;114444;1206;103188;-71
2021/04/18 05:20:57;;;;;;;87.30;54.20;;;;;;;5.26;76.91;99200.52;114415;1206;103085;-71
2021/04/18 05:23:26;;;;;;;87.17;54.83;;;;;;;5.31;76.80;99213.47;114459;1206;103220;-69
2021/04/18 05:25:55;;;;;;;84.70;52.53;;;;;;;5.35;76.75;99217.67;114498;1206;103315;-71
2021/04/18 05:28:22;;;;;;;81.90;50.60;;;;;;;5.31;76.60;99218.74;114449;1206;103085;-72
2021/04/18 05:30:49;;;;;;;85.25;54.75;;;;;;;5.27;77.00;99223.33;114465;1206;103082;-71
2021/04/18 05:33:16;;;;;;;76.90;50.30;;;;;;;5.33;76.72;99222.16;114448;1205;103092;-71
2021/04/18 05:35:44;;;;;;;76.60;49.40;;;;;;;5.36;76.95;99219.38;114532;1206;103204;-72
2021/04/18 05:38:11;;;;;;;76.05;48.45;;;;;;;5.45;76.93;99218.09;114391;1206;103088;-72
2021/04/18 05:40:38;;;;;;;77.80;49.30;;;;;;;5.54;77.09;99217.62;114414;1206;103066;-71
2021/04/18 05:43:05;;;;;;;70.90;44.70;;;;;;;5.62;77.00;99226.02;114376;1206;103079;-72
2021/04/18 05:45:32;;;;;;;70.15;43.30;;;;;;;5.56;76.58;99222.84;114519;1205;103207;-72
2021/04/18 05:47:59;;;;;;;73.15;43.50;;;;;;;5.47;76.70;99221.52;114457;1206;103102;-71
2021/04/18 05:50:27;;;;;;;66.35;42.20;;;;;;;5.40;76.57;99222.73;114366;1206;103117;-73
2021/04/18 05:52:55;;;;;;;75.63;46.43;;;;;;;5.36;76.58;99220.25;114442;1206;103134;-73
2021/04/18 05:55:22;;;;;;;71.90;46.40;;;;;;;5.46;77.11;99217.16;114381;1205;103750;-73
2021/04/18 05:57:49;;;;;;;74.30;47.00;;;;;;;5.60;77.02;99216.48;114401;1206;103139;-73
2021/04/18 06:00:17;;;;;;;73.20;47.90;;;;;;;5.74;77.13;99213.14;114426;1206;103558;-73
2021/04/18 06:02:43;;;;;;;75.93;48.00;;;;;;;5.88;77.14;99210.66;114447;1205;103082;-71
2021/04/18 06:05:11;;;;;;;74.30;47.05;;;;;;;6.03;77.15;99214.33;114458;1206;103095;-73
2021/04/18 06:07:39;;;;;;;73.40;46.40;;;;;;;6.16;77.15;99211.91;115496;1205;101197;-70
2021/04/18 06:10:06;;;;;;;72.10;46.85;;;;;;;6.31;77.18;99204.12;114432;1205;103105;-70
2021/04/18 06:12:33;;;;;;;77.85;48.00;;;;;;;6.44;77.12;99212.23;114460;1206;103084;-69
2021/04/18 06:15:00;;;;;;;72.70;47.50;;;;;;;6.56;77.15;99211.56;114419;1206;103181;-71
2021/04/18 06:17:30;;;;;;;69.50;44.90;;;;;;;6.68;77.15;99210.06;114367;1206;103095;-71
2021/04/18 06:20:01;;;;;;;65.05;40.40;;;;;;;6.79;77.22;99212.95;114451;1205;103092;-73
2021/04/18 06:22:29;;;;;;;62.25;40.70;;;;;;;6.92;77.30;99215.80;114530;1206;103207;-74
2021/04/18 06:24:56;;;;;;;57.25;38.15;;;;;;;7.02;77.19;99217.91;114489;1206;103268;-76
2021/04/18 06:27:24;;;;;;;55.00;36.50;;;;;;;7.11;77.13;99220.92;114500;1206;103091;-73
2021/04/18 06:29:53;;;;;;;57.50;37.20;;;;;;;7.21;77.04;99221.25;114483;1206;103060;-71
2021/04/18 06:32:20;;;;;;;55.80;35.90;;;;;;;7.27;76.97;99223.55;114460;1206;103085;-73
2021/04/18 06:35:01;;;;;;;57.90;37.40;;;;;;;7.28;76.77;99227.91;114496;1205;103053;-73
2021/04/18 06:37:29;;;;;;;54.50;36.40;;;;;;;7.40;76.60;99222.83;114453;1205;103254;-71
2021/04/18 06:39:56;;;;;;;55.20;38.20;;;;;;;7.55;76.75;99223.73;114444;1206;103153;-70
2021/04/18 06:42:24;;;;;;;54.65;38.10;;;;;;;7.71;77.06;99218.44;114496;1207;103156;-71
2021/04/18 06:44:53;;;;;;;52.80;36.05;;;;;;;7.87;76.65;99216.56;114497;1206;103201;-69
2021/04/18 06:47:22;;;;;;;54.90;38.20;;;;;;;8.02;76.76;99212.15;114463;1205;103181;-70
2021/04/18 06:49:50;;;;;;;57.10;36.75;;;;;;;8.13;76.70;99208.01;114483;1206;103079;-70
2021/04/18 06:52:18;;;;;;;49.60;34.00;;;;;;;8.27;76.62;99207.16;114413;1206;103057;-69
2021/04/18 06:54:45;;;;;;;48.00;31.10;;;;;;;8.37;76.73;99207.45;114469;1206;103139;-70
2021/04/18 06:57:12;;;;;;;45.90;31.40;;;;;;;8.43;76.45;99210.59;114459;1206;103194;-69
2021/04/18 06:59:38;;;;;;;47.60;31.50;;;;;;;8.51;76.69;99209.30;114490;1206;103193;-71
2021/04/18 07:02:05;;;;;;;49.60;32.40;;;;;;;8.64;76.79;99211.09;114483;1205;103274;-68
2021/04/18 07:04:34;;;;;;;47.10;31.30;;;;;;;8.77;76.59;99205.00;114454;1206;103164;-70
2021/04/18 07:07:02;;;;;;;46.10;30.50;;;;;;;8.90;76.44;99207.75;114440;1206;103172;-71
2021/04/18 07:09:29;;;;;;;46.95;31.60;;;;;;;9.02;76.68;99204.29;114443;1206;103049;-71
2021/04/18 07:12:01;;;;;;;45.50;29.10;;;;;;;9.16;76.56;99199.91;114486;1206;103175;-72
2021/04/18 07:14:31;;;;;;;46.37;32.00;;;;;;;9.72;74.99;99201.58;114482;1205;103143;-71
2021/04/18 07:17:11;;;;;;;47.50;31.63;;;;;;;10.21;75.03;99197.38;114451;1206;103088;-71
2021/04/18 07:19:42;;;;;;;45.10;29.90;;;;;;;11.74;73.78;99198.86;114470;1206;103057;-71
2021/04/18 07:22:11;;;;;;;46.30;30.70;;;;;;;13.16;73.10;99194.13;114468;1206;103169;-72
2021/04/18 07:24:54;;;;;;;44.00;30.20;;;;;;;14.60;72.95;99198.13;114502;1206;103043;-72
2021/04/18 07:27:23;;;;;;;42.63;29.37;;;;;;;15.75;72.67;99186.08;114477;1206;103076;-71
2021/04/18 07:29:57;;;;;;;39.90;29.60;;;;;;;16.27;72.93;99192.13;114468;1206;103099;-72
2021/04/18 07:32:28;;;;;;;36.60;26.60;;;;;;;16.65;73.04;99193.81;114458;1206;103053;-73
2021/04/18 07:34:56;;;;;;;36.50;27.05;;;;;;;16.56;73.67;99192.00;114439;1206;103121;-71
2021/04/18 07:37:27;;;;;;;35.10;26.40;;;;;;;16.43;74.09;99192.34;114477;1206;103056;-70
2021/04/18 07:39:58;;;;;;;33.20;25.15;;;;;;;16.58;73.38;99190.02;114458;1205;103239;-71
2021/04/18 07:42:43;;;;;;;35.00;24.50;;;;;;;16.50;74.02;99185.39;114385;1206;103501;-71
2021/04/18 07:45:13;;;;;;;33.50;25.60;;;;;;;16.30;74.01;99187.30;114445;1206;103174;-72
2021/04/18 07:47:44;;;;;;;34.80;26.10;;;;;;;16.04;74.78;99179.88;114466;1206;103538;-72
2021/04/18 07:50:13;;;;;;;31.75;22.70;;;;;;;16.03;74.44;99183.55;114448;1205;103081;-75
2021/04/18 07:52:42;;;;;;;29.97;19.83;;;;;;;15.97;73.82;99189.49;114509;1206;104804;-70
2021/04/18 07:55:11;;;;;;;29.75;20.90;;;;;;;15.88;73.58;99179.62;114442;1206;103089;-73
2021/04/18 07:57:39;;;;;;;39.00;27.80;;;;;;;15.75;74.48;99179.88;114497;1206;103207;-71
2021/04/18 08:00:08;;;;;;;86.20;65.20;;;;;;;15.47;74.56;99185.95;114462;1206;103166;-70
2021/04/18 08:02:36;;;;;;;27.75;18.45;;;;;;;15.22;74.27;99184.66;114410;1206;103108;-71
2021/04/18 08:05:04;;;;;;;25.40;17.20;;;;;;;14.98;74.70;99175.17;114448;1206;102862;-70
2021/04/18 08:07:31;;;;;;;25.10;16.20;;;;;;;14.76;74.65;99178.92;114427;1206;103239;-71
2021/04/18 08:10:25;;;;;;;24.63;15.27;;;;;;;14.64;74.59;99174.61;114484;1206;103258;-70
2021/04/18 08:13:09;;;;;;;39.98;29.63;;;;;;;14.50;74.60;99173.14;114440;1206;103195;-70
2021/04/18 08:16:05;;;;;;;27.05;16.85;;;;;;;14.54;74.56;99170.05;114470;1206;103207;-69
2021/04/18 08:18:38;;;;;;;23.93;14.30;;;;;;;14.54;73.72;99172.73;114405;1206;103139;-72
2021/04/18 08:21:37;;;;;;;24.30;14.30;;;;;;;14.78;73.78;99171.59;114448;1206;103161;-72
2021/04/18 08:24:30;;;;;;;23.25;13.40;;;;;;;14.96;73.97;99176.28;114144;1206;103704;-74
2021/04/18 08:27:04;;;;;;;23.50;13.25;;;;;;;15.05;73.53;99177.30;114258;1206;103181;-74
2021/04/18 08:29:31;;;;;;;22.95;14.35;;;;;;;14.89;73.77;99170.63;114306;1206;103152;-75
2021/04/18 08:32:10;;;;;;;24.70;15.00;;;;;;;14.67;73.76;99175.17;114294;1206;103275;-77
2021/04/18 08:34:42;;;;;;;23.93;14.33;;;;;;;14.48;73.63;99177.78;114258;1206;103053;-76
2021/04/18 08:37:20;;;;;;;23.40;14.27;;;;;;;14.25;73.45;99181.48;114340;1206;103670;-75
2021/04/18 08:39:47;;;;;;;23.90;13.83;;;;;;;14.20;73.71;99181.02;114302;1206;103158;-75
2021/04/18 08:42:26;;;;;;;25.35;14.50;;;;;;;14.20;73.58;99175.67;114310;1206;103089;-73
2021/04/18 08:44:53;;;;;;;25.00;14.30;;;;;;;14.32;73.45;99175.60;114335;1206;103149;-71
2021/04/18 08:47:25;;;;;;;24.85;14.95;;;;;;;14.43;73.47;99162.97;114374;1206;103158;-73
2021/04/18 08:49:57;;;;;;;25.50;15.90;;;;;;;14.52;73.08;99169.34;114376;1206;103251;-72
2021/04/18 08:52:28;;;;;;;29.65;17.95;;;;;;;14.42;72.84;99169.31;114410;1206;103094;-71
2021/04/18 08:54:57;;;;;;;;;;;;;;;14.54;73.09;99174.58;114374;1206;103134;-71
2021/04/18 08:57:28;;;;;;;24.30;14.15;;;;;;;14.80;72.90;99163.41;114328;1206;103098;-72
2021/04/18 09:00:00;;;;;;;27.10;18.15;;;;;;;14.78;72.62;99168.92;114350;1205;103159;-72
2021/04/18 09:02:29;;;;;;;26.35;16.50;;;;;;;14.93;72.60;99160.48;114400;1206;103101;-72
2021/04/18 09:05:00;;;;;;;26.70;17.30;;;;;;;14.88;71.92;99163.58;114419;1206;103133;-71
2021/04/18 09:07:35;;;;;;;27.45;17.15;;;;;;;14.64;72.14;99167.44;114454;1206;103043;-72
2021/04/18 09:10:09;;;;;;;27.90;16.80;;;;;;;14.70;72.48;99163.39;114380;1206;103096;-72
2021/04/18 09:12:37;;;;;;;27.60;17.40;;;;;;;14.60;72.73;99163.34;115170;1206;103169;-72
2021/04/18 09:15:08;;;;;;;26.50;14.90;;;;;;;14.50;72.46;99162.44;115798;1205;101061;-72
2021/04/18 09:17:41;;;;;;;26.70;16.60;;;;;;;14.46;72.40;99156.52;115039;1205;103052;-70
2021/04/18 09:20:11;;;;;;;26.15;15.75;;;;;;;14.31;72.37;99158.69;114376;1206;103197;-70
2021/04/18 09:22:40;;;;;;;26.00;16.07;;;;;;;14.18;72.34;99150.88;114073;1205;103134;-72
2021/04/18 09:25:19;;;;;;;25.05;15.05;;;;;;;14.15;72.11;99145.80;114942;1206;103114;-72
2021/04/18 09:27:53;;;;;;;25.00;14.80;;;;;;;14.17;72.26;99151.03;114322;1205;103052;-75
2021/04/18 09:30:26;;;;;;;24.60;14.50;;;;;;;14.19;72.16;99151.75;114321;1206;103147;-74
2021/04/18 09:32:55;;;;;;;25.20;15.00;;;;;;;14.06;72.13;99151.97;114347;1206;103081;-71
2021/04/18 09:35:24;;;;;;;25.17;13.87;;;;;;;13.97;71.89;99149.09;114361;1206;103102;-71
2021/04/18 09:37:54;;;;;;;25.10;15.50;;;;;;;14.06;71.69;99151.97;114285;1206;103284;-74
2021/04/18 09:40:24;;;;;;;23.77;13.33;;;;;;;14.22;71.76;99146.97;114269;1206;103047;-74
2021/04/18 09:42:53;;;;;;;24.43;14.73;;;;;;;14.61;71.83;99151.64;114416;1206;103056;-73
2021/04/18 09:45:23;;;;;;;23.45;14.75;;;;;;;14.59;71.55;99141.06;114383;1205;103478;-72
2021/04/18 09:47:58;;;;;;;23.43;14.17;;;;;;;14.64;71.50;99137.99;114344;1206;103040;-72
2021/04/18 09:50:33;;;;;;;25.70;15.13;;;;;;;14.48;71.32;99149.17;114329;1206;103091;-72
2021/04/18 09:53:18;;;;;;;91.60;65.60;;;;;;;14.34;71.45;99147.72;114410;1206;103159;-76
2021/04/18 09:55:58;;;;;;;31.33;18.73;;;;;;;14.29;71.14;99145.45;114322;1206;103081;-70
2021/04/18 09:58:29;;;;;;;21.57;12.27;;;;;;;13.75;70.81;99141.19;114419;1206;103051;-71
2021/04/18 10:00:56;;;;;;;23.05;13.50;;;;;;;13.53;70.74;99151.88;114339;1206;103098;-73
2021/04/18 10:03:38;;;;;;;21.80;12.35;;;;;;;13.59;70.95;99142.51;114187;1206;103280;-74
2021/04/18 10:06:07;;;;;;;20.30;10.40;;;;;;;13.55;70.88;99146.41;114411;1206;103140;-74
2021/04/18 10:08:37;;;;;;;21.30;11.10;;;;;;;13.37;70.61;99133.58;114374;1206;103085;-73
2021/04/18 10:11:07;;;;;;;20.60;11.40;;;;;;;13.45;70.74;99140.14;114415;1206;103083;-69
2021/04/18 10:13:55;;;;;;;22.35;12.35;;;;;;;13.49;70.80;99141.58;114393;1205;103156;-71
2021/04/18 10:16:31;;;;;;;23.25;12.00;;;;;;;13.10;70.00;99136.70;114409;1205;103152;-72
2021/04/18 10:19:14;;;;;;;24.40;13.85;;;;;;;12.83;70.23;99142.50;114472;1206;103155;-72
2021/04/18 10:22:04;;;;;;;23.10;12.80;;;;;;;12.88;70.55;99145.63;114391;1206;103169;-71
2021/04/18 10:24:44;;;;;;;23.57;12.97;;;;;;;13.00;70.52;99135.79;114480;1206;103056;-73
2021/04/18 10:27:14;;;;;;;22.90;13.20;;;;;;;13.10;70.27;99137.57;114430;1205;103054;-73
2021/04/18 10:29:43;;;;;;;25.05;13.85;;;;;;;13.21;70.35;99130.50;114273;1206;103142;-72
2021/04/18 10:32:15;;;;;;;23.77;13.63;;;;;;;13.29;70.20;99122.67;114350;1206;103214;-71
2021/04/18 10:34:44;;;;;;;23.50;13.40;;;;;;;13.39;69.97;99130.79;114367;1206;103088;-74
2021/04/18 10:37:11;;;;;;;22.70;13.60;;;;;;;13.42;69.72;99130.56;114383;1206;103105;-70
2021/04/18 10:39:38;;;;;;;23.65;14.50;;;;;;;13.39;69.83;99126.28;114232;1206;103214;-71
2021/04/18 10:42:07;;;;;;;25.05;14.30;;;;;;;13.38;69.52;99123.75;113831;1206;103146;-71
2021/04/18 10:44:34;;;;;;;23.40;13.90;;;;;;;13.37;69.68;99122.89;114277;1206;103098;-70
2021/04/18 10:47:10;;;;;;;22.93;11.87;;;;;;;13.40;69.52;99127.14;114402;1206;103114;-72
2021/04/18 10:49:39;;;;;;;24.50;13.63;;;;;;;13.46;69.68;99117.79;114317;1206;103210;-72
2021/04/18 10:52:06;;;;;;;22.70;13.15;;;;;;;13.52;69.57;99131.47;114378;1206;103152;-70
2021/04/18 10:54:33;;;;;;;22.80;13.90;;;;;;;13.54;69.36;99124.17;114378;1206;103251;-70
2021/04/18 10:57:00;;;;;;;23.55;13.80;;;;;;;13.60;69.21;99125.50;114406;1206;103766;-71
2021/04/18 10:59:27;;;;;;;24.87;12.93;;;;;;;13.47;69.09;99120.31;114302;1206;103088;-70
2021/04/18 11:01:54;;;;;;;25.40;13.60;;;;;;;13.26;68.79;99122.92;114311;1205;103092;-70
2021/04/18 11:04:22;;;;;;;22.15;12.70;;;;;;;13.22;68.98;99116.17;114356;1206;103214;-70
2021/04/18 11:06:50;;;;;;;21.60;12.35;;;;;;;13.21;68.74;99123.32;114323;1206;103583;-70
2021/04/18 11:09:19;;;;;;;22.70;12.10;;;;;;;13.22;68.60;99126.86;114320;1206;103072;-73
2021/04/18 11:11:47;;;;;;;23.85;13.50;;;;;;;13.26;68.80;99112.24;114281;1206;101827;-71
2021/04/18 11:14:14;;;;;;;20.40;10.90;;;;;;;13.23;68.67;99120.54;114359;1206;103095;-71
2021/04/18 11:16:41;;;;;;;23.40;13.00;;;;;;;13.22;68.55;99125.02;114355;1207;103153;-70